Time;durP1;ratioP1;P1;durP2;ratioP2;P2;SDS_P1;SDS_P2;PMS_P1;PMS_P2;Temp;Humidity;BMP_temperature;BMP_pressure;BME280_temperature;BME280_humidity;BME280_pressure;Samples;Min_cycle;Max_cycle;Signal;HPM_P1;HPM_P2
2021/10/31 00:01:27;;;;;;;1.70;1.20;;;14.60;99.90;;;;;;5053192;28;20232;-74
2021/10/31 00:03:55;;;;;;;3.08;1.65;;;14.50;99.90;;;;;;5053365;28;20212;-75
2021/10/31 00:06:22;;;;;;;6.97;5.43;;;14.50;99.90;;;;;;5053372;28;20659;-75
2021/10/31 00:08:50;;;;;;;7.47;4.38;;;14.50;99.90;;;;;;5053524;28;20204;-74
2021/10/31 00:11:17;;;;;;;7.45;5.93;;;14.40;99.90;;;;;;5053397;28;20219;-74
2021/10/31 00:13:44;;;;;;;7.55;6.45;;;14.20;99.90;;;;;;5053584;28;20205;-75
2021/10/31 00:16:11;;;;;;;8.95;7.43;;;14.00;99.90;;;;;;5053291;28;20569;-75
2021/10/31 00:18:39;;;;;;;12.15;7.30;;;13.90;99.90;;;;;;5053748;28;20225;-75
2021/10/31 00:21:07;;;;;;;10.55;8.10;;;13.80;99.90;;;;;;5053120;28;20713;-74
2021/10/31 00:23:34;;;;;;;8.95;7.90;;;13.50;99.90;;;;;;5053408;28;20619;-75
2021/10/31 00:26:00;;;;;;;7.82;7.03;;;13.50;99.90;;;;;;5053808;28;20294;-74
2021/10/31 00:28:27;;;;;;;7.50;6.80;;;13.30;99.90;;;;;;5053380;28;20207;-74
2021/10/31 00:30:54;;;;;;;8.98;7.22;;;13.30;99.90;;;;;;5053262;28;20657;-75
2021/10/31 00:33:21;;;;;;;8.40;7.22;;;13.20;99.90;;;;;;5053225;28;20289;-74
2021/10/31 00:35:49;;;;;;;9.65;7.70;;;13.10;99.90;;;;;;5053319;28;20205;-74
2021/10/31 00:38:16;;;;;;;9.60;8.02;;;13.10;99.90;;;;;;5053279;28;20254;-74
2021/10/31 00:40:44;;;;;;;9.38;7.68;;;12.90;99.90;;;;;;5053226;28;20314;-74
2021/10/31 00:43:11;;;;;;;10.25;7.80;;;12.90;99.90;;;;;;5053121;28;20207;-74
2021/10/31 00:45:38;;;;;;;9.40;6.57;;;12.90;99.90;;;;;;5053167;28;20292;-74
2021/10/31 00:48:05;;;;;;;9.25;7.13;;;12.90;99.90;;;;;;5053154;28;20203;-75
2021/10/31 00:50:32;;;;;;;10.13;7.82;;;12.90;99.90;;;;;;5053061;28;20199;-74
2021/10/31 00:53:02;;;;;;;11.95;8.40;;;12.80;99.90;;;;;;5053025;28;20204;-74
2021/10/31 00:55:29;;;;;;;8.90;7.70;;;12.90;99.90;;;;;;5052971;28;20294;-75
2021/10/31 00:57:57;;;;;;;8.75;7.75;;;12.80;99.90;;;;;;5053061;28;20234;-74
2021/10/31 01:00:24;;;;;;;13.25;8.35;;;12.70;99.90;;;;;;5052820;28;20212;-75
2021/10/31 01:02:51;;;;;;;11.27;8.45;;;12.80;99.90;;;;;;5053003;28;20337;-74
2021/10/31 01:05:24;;;;;;;10.80;9.40;;;12.70;99.90;;;;;;5053032;28;20208;-75
2021/10/31 01:08:12;;;;;;;11.70;8.38;;;12.60;99.90;;;;;;5053115;28;20199;-75
2021/10/31 01:10:52;;;;;;;10.40;8.02;;;12.50;99.90;;;;;;5052872;28;20701;-75
2021/10/31 01:13:33;;;;;;;9.88;7.57;;;12.40;99.90;;;;;;5052807;28;20282;-74
2021/10/31 01:16:13;;;;;;;9.60;8.00;;;12.40;99.90;;;;;;5054448;28;20203;-74
2021/10/31 01:18:58;;;;;;;9.32;7.68;;;12.40;99.90;;;;;;5056651;28;20286;-74
2021/10/31 01:21:37;;;;;;;11.68;7.50;;;12.30;99.90;;;;;;5056427;28;20306;-74
2021/10/31 01:24:26;;;;;;;12.32;9.20;;;12.30;99.90;;;;;;5056674;28;20271;-74
2021/10/31 01:27:04;;;;;;;8.80;7.43;;;12.30;99.90;;;;;;5056620;28;20204;-74
2021/10/31 01:29:46;;;;;;;12.07;7.75;;;12.30;99.90;;;;;;5056512;28;20294;-74
2021/10/31 01:32:25;;;;;;;10.88;8.35;;;12.10;99.90;;;;;;5056136;28;20227;-74
2021/10/31 01:35:00;;;;;;;9.55;7.68;;;12.00;99.90;;;;;;5056498;28;20629;-75
2021/10/31 01:37:36;;;;;;;10.63;8.27;;;11.90;99.90;;;;;;5056320;28;20234;-74
2021/10/31 01:40:12;;;;;;;12.00;9.00;;;11.80;99.90;;;;;;5056381;28;20219;-75
2021/10/31 01:42:50;;;;;;;10.82;8.95;;;11.80;99.90;;;;;;5055862;28;20310;-74
2021/10/31 01:45:22;;;;;;;10.20;7.95;;;11.70;99.90;;;;;;5056110;28;20213;-74
2021/10/31 01:48:00;;;;;;;13.15;9.50;;;11.70;99.90;;;;;;5056224;28;20199;-74
2021/10/31 01:50:37;;;;;;;10.75;8.90;;;11.60;99.90;;;;;;5056096;28;20211;-74
2021/10/31 01:53:08;;;;;;;10.88;8.45;;;11.50;99.90;;;;;;5055957;28;20210;-74
2021/10/31 01:55:40;;;;;;;10.77;8.48;;;11.60;99.90;;;;;;5056054;28;20294;-74
2021/10/31 01:58:09;;;;;;;12.68;8.40;;;11.60;99.90;;;;;;5055795;28;20772;-74
2021/10/31 02:00:37;;;;;;;10.73;8.35;;;11.60;99.90;;;;;;5055622;28;20229;-74
2021/10/31 02:03:06;;;;;;;8.88;7.65;;;11.70;99.90;;;;;;5055730;28;20206;-76
2021/10/31 02:05:37;;;;;;;9.98;7.70;;;11.70;99.90;;;;;;5055764;28;20310;-75
2021/10/31 02:08:07;;;;;;;11.18;8.40;;;11.60;99.90;;;;;;5055871;28;20202;-75
2021/10/31 02:10:36;;;;;;;9.27;7.85;;;11.60;99.90;;;;;;5055678;28;20215;-75
2021/10/31 02:13:04;;;;;;;11.77;8.40;;;11.60;99.90;;;;;;5055548;28;20207;-74
2021/10/31 02:15:33;;;;;;;9.93;7.80;;;11.60;99.90;;;;;;5055436;28;20207;-75
2021/10/31 02:18:01;;;;;;;10.20;8.25;;;11.60;99.90;;;;;;5055459;28;20241;-75
2021/10/31 02:20:29;;;;;;;9.15;8.20;;;11.50;99.90;;;;;;5055503;28;20210;-75
2021/10/31 02:22:58;;;;;;;11.57;8.23;;;11.50;99.90;;;;;;5055721;28;20211;-74
2021/10/31 02:25:26;;;;;;;9.27;7.85;;;11.50;99.90;;;;;;5055320;28;20203;-74
2021/10/31 02:27:53;;;;;;;14.38;7.70;;;11.50;99.90;;;;;;5054734;28;20248;-75
2021/10/31 02:30:21;;;;;;;6.53;5.78;;;11.50;99.90;;;;;;5055205;28;20242;-74
2021/10/31 02:32:49;;;;;;;7.75;6.93;;;11.40;99.90;;;;;;5055194;28;20565;-74
2021/10/31 02:35:16;;;;;;;9.05;6.90;;;11.40;99.90;;;;;;5055076;28;20658;-75
2021/10/31 02:37:44;;;;;;;7.30;6.32;;;11.50;99.90;;;;;;5055180;28;20585;-74
2021/10/31 02:40:15;;;;;;;9.50;6.03;;;11.60;99.90;;;;;;5055058;28;20200;-75
2021/10/31 02:42:42;;;;;;;6.35;5.43;;;11.70;99.90;;;;;;5055043;28;20230;-75
2021/10/31 02:45:11;;;;;;;7.10;5.90;;;11.70;99.90;;;;;;5055034;28;20203;-75
2021/10/31 02:47:43;;;;;;;8.15;6.43;;;11.70;99.90;;;;;;5055065;28;20195;-75
2021/10/31 02:50:14;;;;;;;8.63;6.78;;;11.70;99.90;;;;;;5055067;28;20203;-75
2021/10/31 02:52:59;;;;;;;8.95;6.53;;;11.70;99.90;;;;;;5054742;28;20227;-75
2021/10/31 02:55:41;;;;;;;8.50;6.22;;;11.80;99.90;;;;;;5054851;28;20294;-75
2021/10/31 02:58:13;;;;;;;7.55;6.07;;;11.80;99.90;;;;;;5054610;28;20219;-75
2021/10/31 03:00:42;;;;;;;4.82;4.35;;;11.80;99.90;;;;;;5054575;28;20233;-75
2021/10/31 03:03:09;;;;;;;5.63;4.68;;;11.80;99.90;;;;;;5054493;28;20206;-74
2021/10/31 03:05:36;;;;;;;6.30;5.13;;;11.80;99.90;;;;;;5054661;28;20210;-75
2021/10/31 03:08:03;;;;;;;6.50;4.78;;;11.80;99.90;;;;;;5054643;28;20202;-74
2021/10/31 03:10:31;;;;;;;4.45;3.75;;;11.80;99.90;;;;;;5054562;28;20204;-75
2021/10/31 03:12:58;;;;;;;4.45;3.35;;;11.80;99.90;;;;;;5054435;28;20294;-74
2021/10/31 03:15:26;;;;;;;3.90;3.20;;;11.70;99.90;;;;;;5054413;28;20665;-75
2021/10/31 03:17:52;;;;;;;4.15;3.40;;;11.70;99.90;;;;;;5054438;28;20253;-75
2021/10/31 03:20:19;;;;;;;3.35;2.90;;;11.90;99.90;;;;;;5054262;28;20204;-75
2021/10/31 03:22:46;;;;;;;3.72;2.55;;;11.90;99.90;;;;;;5054008;28;20741;-74
2021/10/31 03:25:13;;;;;;;5.40;3.38;;;12.00;99.90;;;;;;5054131;28;20748;-75
2021/10/31 03:27:41;;;;;;;4.18;2.60;;;12.00;99.90;;;;;;5054314;28;20230;-75
2021/10/31 03:30:09;;;;;;;3.03;2.70;;;12.10;99.90;;;;;;5054236;28;20239;-75
2021/10/31 03:32:36;;;;;;;3.15;2.85;;;12.10;99.90;;;;;;5053717;28;20720;-75
2021/10/31 03:35:02;;;;;;;7.72;4.72;;;12.10;99.90;;;;;;5054097;28;20209;-75
2021/10/31 03:37:29;;;;;;;6.20;3.90;;;12.10;99.90;;;;;;5054057;28;20227;-75
2021/10/31 03:39:56;;;;;;;3.47;2.92;;;12.10;99.90;;;;;;5053040;28;20294;-75
2021/10/31 03:42:23;;;;;;;3.38;3.08;;;12.00;99.90;;;;;;5053811;28;20234;-74
2021/10/31 03:44:52;;;;;;;3.58;3.13;;;12.00;99.90;;;;;;5054026;28;20208;-75
2021/10/31 03:47:20;;;;;;;3.38;3.08;;;11.90;99.90;;;;;;5053769;28;20636;-75
2021/10/31 03:49:47;;;;;;;3.35;2.65;;;11.70;99.90;;;;;;5053869;28;20210;-75
2021/10/31 03:52:14;;;;;;;2.50;2.30;;;11.60;99.90;;;;;;5053656;28;20318;-75
2021/10/31 03:54:41;;;;;;;3.50;2.70;;;11.60;99.90;;;;;;5053881;28;20226;-74
2021/10/31 03:57:08;;;;;;;2.97;2.42;;;11.70;99.90;;;;;;5053737;28;20573;-75
2021/10/31 03:59:35;;;;;;;2.90;2.70;;;11.70;99.90;;;;;;5053599;28;20238;-75
2021/10/31 04:02:04;;;;;;;3.90;2.50;;;11.70;99.90;;;;;;5053294;28;20230;-74
2021/10/31 04:04:31;;;;;;;2.90;2.30;;;11.70;99.90;;;;;;5053727;28;20302;-75
2021/10/31 04:06:58;;;;;;;3.47;2.40;;;11.60;99.90;;;;;;5053469;28;20260;-75
2021/10/31 04:09:25;;;;;;;2.50;2.30;;;11.50;99.90;;;;;;5053622;28;20242;-74
2021/10/31 04:11:51;;;;;;;4.28;2.60;;;11.40;99.90;;;;;;5053286;28;20311;-74
2021/10/31 04:14:18;;;;;;;2.35;2.15;;;11.40;99.90;;;;;;5053593;28;20207;-75
2021/10/31 04:16:46;;;;;;;3.17;2.30;;;11.40;99.90;;;;;;5053509;28;20199;-75
2021/10/31 04:19:14;;;;;;;2.17;1.83;;;11.40;99.90;;;;;;5053417;28;20337;-75
2021/10/31 04:21:41;;;;;;;2.25;1.90;;;11.50;99.90;;;;;;5053330;28;20230;-74
2021/10/31 04:24:08;;;;;;;2.42;2.13;;;11.50;99.90;;;;;;5053369;28;20199;-75
2021/10/31 04:26:35;;;;;;;2.20;1.67;;;11.50;99.90;;;;;;5053449;28;20210;-75
2021/10/31 04:29:02;;;;;;;2.75;2.55;;;11.30;99.90;;;;;;5053426;28;20230;-74
2021/10/31 04:31:28;;;;;;;2.25;2.00;;;11.00;99.90;;;;;;5053113;28;20306;-74
2021/10/31 04:33:55;;;;;;;2.80;2.22;;;10.90;99.90;;;;;;5053177;28;20200;-75
2021/10/31 04:36:24;;;;;;;3.00;2.38;;;10.80;99.90;;;;;;5053390;28;20309;-75
2021/10/31 04:38:54;;;;;;;2.65;2.45;;;10.80;99.90;;;;;;5053272;28;20223;-74
2021/10/31 04:41:22;;;;;;;1.95;1.70;;;11.00;99.90;;;;;;5053147;28;20267;-74
2021/10/31 04:43:49;;;;;;;2.70;2.30;;;11.10;99.90;;;;;;5053209;28;20208;-74
2021/10/31 04:46:16;;;;;;;2.22;1.90;;;11.10;99.90;;;;;;5053021;28;20760;-75
2021/10/31 04:48:43;;;;;;;2.10;1.92;;;11.10;99.90;;;;;;5053466;28;20203;-75
2021/10/31 04:51:10;;;;;;;2.85;1.95;;;11.10;99.90;;;;;;5054691;28;20652;-74
2021/10/31 04:53:38;;;;;;;2.17;1.88;;;11.10;99.90;;;;;;5057087;28;20298;-75
2021/10/31 04:56:05;;;;;;;2.45;2.10;;;11.20;99.90;;;;;;5057170;28;20209;-75
2021/10/31 04:58:32;;;;;;;3.03;2.10;;;11.30;99.90;;;;;;5057054;28;20227;-75
2021/10/31 05:01:00;;;;;;;2.38;1.95;;;11.30;99.90;;;;;;5056554;28;20246;-74
2021/10/31 05:03:27;;;;;;;1.80;1.63;;;11.20;99.90;;;;;;5056881;28;20661;-75
2021/10/31 05:05:54;;;;;;;2.45;2.10;;;11.30;99.90;;;;;;5056989;28;20207;-75
2021/10/31 05:08:21;;;;;;;1.95;1.75;;;11.30;99.90;;;;;;5056971;28;20195;-75
2021/10/31 05:10:49;;;;;;;1.52;1.40;;;11.30;99.90;;;;;;5056811;28;20310;-75
2021/10/31 05:13:16;;;;;;;2.88;2.30;;;11.30;99.90;;;;;;5056720;28;20203;-74
2021/10/31 05:15:43;;;;;;;2.10;1.85;;;11.30;99.90;;;;;;5056599;28;20684;-75
2021/10/31 05:18:10;;;;;;;2.50;1.80;;;11.40;99.90;;;;;;5056701;28;20233;-75
2021/10/31 05:20:37;;;;;;;2.67;1.92;;;11.50;99.90;;;;;;5056537;28;20669;-75
2021/10/31 05:23:03;;;;;;;2.22;1.92;;;11.50;99.90;;;;;;5056512;28;20203;-75
2021/10/31 05:25:30;;;;;;;2.50;2.30;;;11.50;99.90;;;;;;5056367;28;20310;-75
2021/10/31 05:27:58;;;;;;;2.58;2.35;;;11.50;99.90;;;;;;5056632;28;20235;-75
2021/10/31 05:30:25;;;;;;;2.67;2.47;;;11.60;99.90;;;;;;5056385;28;20217;-75
2021/10/31 05:32:52;;;;;;;3.20;2.25;;;11.60;99.90;;;;;;5056210;28;20214;-74
2021/10/31 05:35:19;;;;;;;3.75;2.80;;;11.40;99.90;;;;;;5056315;28;20254;-75
2021/10/31 05:37:47;;;;;;;2.58;2.15;;;11.30;99.90;;;;;;5056294;28;20257;-75
2021/10/31 05:40:17;;;;;;;2.85;2.10;;;11.30;99.90;;;;;;5056052;28;20621;-75
2021/10/31 05:42:45;;;;;;;3.08;2.58;;;11.30;99.90;;;;;;5055860;28;20710;-74
2021/10/31 05:45:13;;;;;;;3.92;2.78;;;11.20;99.90;;;;;;5056538;28;20205;-75
2021/10/31 05:47:42;;;;;;;3.80;3.05;;;11.10;99.90;;;;;;5056242;28;20231;-75
2021/10/31 05:50:11;;;;;;;2.70;2.03;;;11.00;99.90;;;;;;5056161;28;20203;-75
2021/10/31 05:52:39;;;;;;;2.70;2.50;;;11.10;99.90;;;;;;5055533;28;20219;-75
2021/10/31 05:55:08;;;;;;;2.95;2.50;;;11.20;99.90;;;;;;5056070;28;20386;-74
2021/10/31 05:57:35;;;;;;;3.63;3.13;;;11.30;99.90;;;;;;5055857;28;20298;-75
2021/10/31 06:00:06;;;;;;;3.20;2.90;;;11.20;99.90;;;;;;5055757;28;20314;-75
2021/10/31 06:02:34;;;;;;;3.35;2.80;;;11.30;99.90;;;;;;5054531;28;20269;-74
2021/10/31 06:05:02;;;;;;;3.22;2.92;;;11.30;99.90;;;;;;5055790;28;20199;-75
2021/10/31 06:07:29;;;;;;;5.13;3.60;;;11.40;99.90;;;;;;5055589;28;20295;-75
2021/10/31 06:09:56;;;;;;;3.88;2.97;;;11.40;99.90;;;;;;5056108;28;20302;-75
2021/10/31 06:12:24;;;;;;;2.90;2.70;;;11.40;99.90;;;;;;5055501;28;20277;-75
2021/10/31 06:14:50;;;;;;;4.03;3.10;;;11.20;99.90;;;;;;5055602;28;20214;-75
2021/10/31 06:17:18;;;;;;;3.10;2.78;;;11.30;99.90;;;;;;5055416;28;20204;-75
2021/10/31 06:19:46;;;;;;;3.15;2.85;;;11.30;99.90;;;;;;5055456;28;20693;-75
2021/10/31 06:22:12;;;;;;;4.55;3.38;;;11.30;99.90;;;;;;5055328;28;20223;-75
2021/10/31 06:24:39;;;;;;;3.50;3.10;;;11.40;99.90;;;;;;5055518;28;20290;-75
2021/10/31 06:27:06;;;;;;;3.75;2.40;;;11.30;99.90;;;;;;5055461;28;20237;-75
2021/10/31 06:29:33;;;;;;;2.95;2.75;;;11.20;99.90;;;;;;5055428;28;20210;-74
2021/10/31 06:32:00;;;;;;;3.80;3.08;;;11.00;99.90;;;;;;5054893;28;20788;-74
2021/10/31 06:34:27;;;;;;;4.43;3.50;;;11.00;99.90;;;;;;5055311;28;20298;-74
2021/10/31 06:36:55;;;;;;;7.68;4.68;;;10.90;99.90;;;;;;5055347;28;20570;-75
2021/10/31 06:39:22;;;;;;;10.10;6.25;;;10.90;99.90;;;;;;5055162;28;20249;-75
2021/10/31 06:41:49;;;;;;;9.10;6.22;;;11.00;99.90;;;;;;5054734;28;20309;-74
2021/10/31 06:44:15;;;;;;;12.90;6.95;;;11.20;99.90;;;;;;5055157;28;20203;-75
2021/10/31 06:46:42;;;;;;;8.77;5.82;;;11.10;99.90;;;;;;5054970;28;20239;-74
2021/10/31 06:49:10;;;;;;;6.38;5.35;;;11.30;99.90;;;;;;5055061;28;20282;-74
2021/10/31 06:51:37;;;;;;;8.05;5.85;;;11.30;99.90;;;;;;5054834;28;20231;-75
2021/10/31 06:54:06;;;;;;;7.10;5.50;;;11.40;99.90;;;;;;5054976;28;20596;-75
2021/10/31 06:56:32;;;;;;;8.63;5.80;;;11.40;99.90;;;;;;5054905;28;20298;-75
2021/10/31 06:59:00;;;;;;;7.15;5.72;;;11.30;99.90;;;;;;5054807;28;20318;-74
2021/10/31 07:01:27;;;;;;;9.35;5.88;;;11.40;99.90;;;;;;5054267;28;20749;-75
2021/10/31 07:03:54;;;;;;;9.10;6.47;;;11.40;99.90;;;;;;5054796;28;20207;-75
2021/10/31 07:06:21;;;;;;;8.45;6.28;;;11.30;99.90;;;;;;5054549;28;20208;-75
2021/10/31 07:08:48;;;;;;;8.68;7.43;;;11.20;99.90;;;;;;5054677;28;20206;-75
2021/10/31 07:11:16;;;;;;;10.13;6.80;;;11.10;99.90;;;;;;5054243;28;20223;-74
2021/10/31 07:13:43;;;;;;;9.88;7.22;;;11.00;99.90;;;;;;5054448;28;20204;-75
2021/10/31 07:16:09;;;;;;;10.10;7.55;;;11.20;99.90;;;;;;5054238;28;20290;-75
2021/10/31 07:18:36;;;;;;;10.70;7.63;;;11.30;99.90;;;;;;5054428;28;20223;-75
2021/10/31 07:21:04;;;;;;;9.35;7.03;;;11.50;99.90;;;;;;5054031;28;20219;-74
2021/10/31 07:23:31;;;;;;;5.65;4.93;;;11.60;99.90;;;;;;5054417;28;20242;-75
2021/10/31 07:25:58;;;;;;;6.82;4.35;;;11.70;99.90;;;;;;5054122;28;20226;-75
2021/10/31 07:28:26;;;;;;;9.15;5.75;;;11.70;99.90;;;;;;5054193;28;20261;-75
2021/10/31 07:30:55;;;;;;;7.53;5.72;;;11.70;99.90;;;;;;5053935;28;20769;-75
2021/10/31 07:33:22;;;;;;;11.50;7.40;;;11.70;99.90;;;;;;5053862;28;20199;-75
2021/10/31 07:35:50;;;;;;;9.90;7.90;;;11.70;99.90;;;;;;5054148;28;20203;-74
2021/10/31 07:38:17;;;;;;;7.50;5.80;;;11.80;99.90;;;;;;5054033;28;20211;-75
2021/10/31 07:40:44;;;;;;;6.45;5.53;;;11.80;99.90;;;;;;5053989;28;20232;-75
2021/10/31 07:43:11;;;;;;;9.90;7.50;;;11.70;99.90;;;;;;5053872;28;20303;-75
2021/10/31 07:45:41;;;;;;;9.13;7.53;;;11.90;99.90;;;;;;5054028;28;20203;-75
2021/10/31 07:48:08;;;;;;;10.38;8.07;;;12.00;99.90;;;;;;5053693;28;20689;-74
2021/10/31 07:50:36;;;;;;;10.45;8.18;;;12.00;99.90;;;;;;5053739;28;20302;-74
2021/10/31 07:53:03;;;;;;;11.60;8.65;;;12.00;99.90;;;;;;5053730;28;20207;-74
2021/10/31 07:55:32;;;;;;;14.98;9.55;;;11.90;99.90;;;;;;5053759;28;20658;-75
2021/10/31 07:58:00;;;;;;;12.00;8.77;;;11.80;99.90;;;;;;5053781;28;20562;-75
2021/10/31 08:00:28;;;;;;;10.88;8.90;;;11.90;99.90;;;;;;5053463;28;20231;-75
2021/10/31 08:02:56;;;;;;;10.43;8.45;;;11.80;99.90;;;;;;5053600;28;20294;-75
2021/10/31 08:05:24;;;;;;;11.90;7.90;;;11.90;99.90;;;;;;5053709;28;20199;-75
2021/10/31 08:07:52;;;;;;;10.18;8.32;;;12.10;99.90;;;;;;5053653;28;20199;-75
2021/10/31 08:10:19;;;;;;;14.07;9.15;;;12.30;99.90;;;;;;5053616;28;20592;-75
2021/10/31 08:12:47;;;;;;;11.48;8.90;;;12.40;99.90;;;;;;5053493;28;20199;-75
2021/10/31 08:15:14;;;;;;;10.20;8.15;;;12.50;99.90;;;;;;5053573;28;20621;-75
2021/10/31 08:17:41;;;;;;;13.85;9.45;;;12.40;99.90;;;;;;5053453;28;20203;-75
2021/10/31 08:20:11;;;;;;;12.05;9.73;;;12.30;99.90;;;;;;5053445;28;20313;-75
2021/10/31 08:22:37;;;;;;;11.55;10.20;;;12.20;99.90;;;;;;5053059;28;20223;-75
2021/10/31 08:25:05;;;;;;;13.43;9.07;;;12.30;99.90;;;;;;5052762;28;20235;-74
2021/10/31 08:27:32;;;;;;;10.23;8.60;;;12.50;99.90;;;;;;5053274;28;20666;-74
2021/10/31 08:29:59;;;;;;;13.45;9.82;;;12.70;99.90;;;;;;5053167;28;20713;-74
2021/10/31 08:32:28;;;;;;;11.65;10.10;;;12.70;99.90;;;;;;5053224;28;20318;-74
2021/10/31 08:34:55;;;;;;;13.38;10.13;;;12.60;99.90;;;;;;5053144;28;20226;-74
2021/10/31 08:37:23;;;;;;;14.65;10.60;;;12.50;99.90;;;;;;5053329;28;20577;-75
2021/10/31 08:39:49;;;;;;;10.38;8.35;;;12.50;99.90;;;;;;5053306;28;20230;-74
2021/10/31 08:42:17;;;;;;;12.75;9.80;;;12.60;99.90;;;;;;5053052;28;20720;-74
2021/10/31 08:44:44;;;;;;;10.65;8.73;;;12.70;99.90;;;;;;5053418;28;20679;-74
2021/10/31 08:47:11;;;;;;;9.55;8.10;;;12.90;99.90;;;;;;5053518;28;20238;-74
2021/10/31 08:49:38;;;;;;;7.47;6.53;;;13.10;99.90;;;;;;5053459;28;20199;-74
2021/10/31 08:52:07;;;;;;;7.78;6.47;;;13.20;99.90;;;;;;5053161;28;20317;-74
2021/10/31 08:54:37;;;;;;;8.98;6.90;;;13.30;99.90;;;;;;5053589;28;20242;-74
2021/10/31 08:57:05;;;;;;;6.68;5.35;;;13.30;99.90;;;;;;5053228;28;20211;-73
2021/10/31 08:59:32;;;;;;;5.63;4.70;;;13.30;99.90;;;;;;5053117;28;20315;-73
2021/10/31 09:01:59;;;;;;;7.50;5.95;;;13.20;99.90;;;;;;5053161;28;20318;-74
2021/10/31 09:04:27;;;;;;;6.82;5.80;;;13.30;99.90;;;;;;5053482;28;20261;-73
2021/10/31 09:06:55;;;;;;;7.43;4.88;;;13.20;99.90;;;;;;5053298;28;20199;-74
2021/10/31 09:09:24;;;;;;;6.20;5.18;;;13.20;99.90;;;;;;5053918;28;20196;-74
2021/10/31 09:11:52;;;;;;;6.05;4.90;;;13.20;99.90;;;;;;5052962;28;20361;-74
2021/10/31 09:14:20;;;;;;;5.90;5.10;;;13.10;99.90;;;;;;5053000;28;20203;-74
2021/10/31 09:16:48;;;;;;;7.65;5.25;;;13.00;99.90;;;;;;5053046;28;20231;-74
2021/10/31 09:19:15;;;;;;;4.93;4.43;;;13.20;99.90;;;;;;5052907;28;20220;-74
2021/10/31 09:21:43;;;;;;;6.78;4.55;;;13.30;99.90;;;;;;5052764;28;20281;-74
2021/10/31 09:24:10;;;;;;;5.80;5.03;;;13.50;99.90;;;;;;5052955;28;20290;-74
2021/10/31 09:26:37;;;;;;;4.57;4.05;;;13.60;99.90;;;;;;5052843;28;20733;-74
2021/10/31 09:29:06;;;;;;;5.97;5.05;;;13.70;99.90;;;;;;5052869;28;20231;-74
2021/10/31 09:31:35;;;;;;;5.38;4.50;;;13.60;99.90;;;;;;5052520;28;20660;-74
2021/10/31 09:34:01;;;;;;;5.45;4.90;;;13.70;99.90;;;;;;5052837;28;20239;-74
2021/10/31 09:36:29;;;;;;;6.18;4.60;;;13.70;99.90;;;;;;5052840;28;20230;-74
2021/10/31 09:38:56;;;;;;;4.70;3.85;;;13.80;99.90;;;;;;5055504;28;20222;-74
2021/10/31 09:41:24;;;;;;;4.30;3.40;;;13.80;99.90;;;;;;5056103;28;20334;-74
2021/10/31 09:43:53;;;;;;;4.47;3.72;;;13.90;99.90;;;;;;5056257;28;20294;-74
2021/10/31 09:46:22;;;;;;;4.90;4.00;;;14.00;99.90;;;;;;5056259;28;20207;-74
2021/10/31 09:48:49;;;;;;;4.80;4.13;;;14.10;99.90;;;;;;5056044;28;20295;-74
2021/10/31 09:51:15;;;;;;;5.93;4.25;;;14.20;99.90;;;;;;5055925;28;20224;-74
2021/10/31 09:53:44;;;;;;;3.25;2.95;;;14.20;99.90;;;;;;5056185;28;20203;-74
2021/10/31 09:56:11;;;;;;;3.67;3.05;;;14.30;99.90;;;;;;5056166;28;20200;-74
2021/10/31 09:58:41;;;;;;;3.05;2.70;;;14.30;99.90;;;;;;5056025;28;20211;-74
2021/10/31 10:01:24;;;;;;;4.00;2.25;;;14.40;99.90;;;;;;5055384;28;20606;-74
2021/10/31 10:03:56;;;;;;;2.70;2.50;;;14.50;99.90;;;;;;5056027;28;20209;-74
2021/10/31 10:06:24;;;;;;;2.90;2.60;;;14.50;99.90;;;;;;5056342;28;20200;-74
2021/10/31 10:09:03;;;;;;;2.45;2.28;;;14.60;99.90;;;;;;5055566;28;20304;-74
2021/10/31 10:11:33;;;;;;;2.40;2.20;;;14.60;99.90;;;;;;5055620;28;20261;-74
2021/10/31 10:14:11;;;;;;;3.00;2.70;;;14.60;99.90;;;;;;5055573;28;20762;-75
2021/10/31 10:16:39;;;;;;;5.03;3.85;;;14.60;99.90;;;;;;5055677;28;20210;-75
2021/10/31 10:19:20;;;;;;;4.15;3.75;;;14.60;99.90;;;;;;5055477;28;20212;-74
2021/10/31 10:21:56;;;;;;;3.70;3.30;;;14.60;99.90;;;;;;5055243;28;20225;-74
2021/10/31 10:24:26;;;;;;;3.90;3.60;;;14.60;99.90;;;;;;5055400;28;20562;-75
2021/10/31 10:26:57;;;;;;;3.92;3.53;;;14.60;99.90;;;;;;5055438;28;20212;-74
2021/10/31 10:29:26;;;;;;;3.67;3.38;;;14.70;99.90;;;;;;5055472;28;20670;-74
2021/10/31 10:31:55;;;;;;;4.15;2.90;;;14.70;99.90;;;;;;5055050;28;20316;-74
2021/10/31 10:34:41;;;;;;;3.90;3.35;;;14.80;99.90;;;;;;5055205;28;20680;-75
2021/10/31 10:37:11;;;;;;;3.47;2.95;;;14.90;99.90;;;;;;5055237;28;20215;-75
2021/10/31 10:39:39;;;;;;;4.38;3.42;;;15.00;99.90;;;;;;5055235;28;20707;-75
2021/10/31 10:42:06;;;;;;;3.50;3.20;;;15.10;99.90;;;;;;5054704;28;20230;-74
2021/10/31 10:44:34;;;;;;;3.13;2.83;;;15.20;99.90;;;;;;5055228;28;20214;-75
2021/10/31 10:47:04;;;;;;;3.95;3.55;;;15.20;99.90;;;;;;5055464;28;20212;-74
2021/10/31 10:49:35;;;;;;;3.83;3.45;;;15.30;99.90;;;;;;5054645;28;20206;-74
2021/10/31 10:52:23;;;;;;;4.47;3.97;;;15.40;99.90;;;;;;5054626;28;20227;-74
2021/10/31 10:55:10;;;;;;;4.00;3.70;;;15.50;99.90;;;;;;5055015;28;20249;-75
2021/10/31 10:57:40;;;;;;;4.45;3.45;;;15.50;99.90;;;;;;5054778;28;20682;-75
2021/10/31 11:00:11;;;;;;;3.75;3.10;;;15.70;99.90;;;;;;5054428;28;20226;-75
2021/10/31 11:02:38;;;;;;;4.78;3.78;;;15.80;99.90;;;;;;5054698;28;20318;-74
2021/10/31 11:05:08;;;;;;;3.72;3.42;;;16.00;99.90;;;;;;5054727;28;20200;-75
2021/10/31 11:07:40;;;;;;;2.83;2.63;;;16.20;99.90;;;;;;5054823;28;20214;-75
2021/10/31 11:10:09;;;;;;;4.10;3.00;;;16.30;99.90;;;;;;5054749;28;20297;-75
2021/10/31 11:12:38;;;;;;;3.60;3.00;;;16.50;99.90;;;;;;5054428;28;20222;-75
2021/10/31 11:15:07;;;;;;;4.45;3.00;;;16.60;99.90;;;;;;5054632;28;20562;-75
2021/10/31 11:17:35;;;;;;;3.72;3.17;;;16.80;99.90;;;;;;5054505;28;20213;-75
2021/10/31 11:20:02;;;;;;;3.80;3.33;;;16.90;99.90;;;;;;5054470;28;20223;-75
2021/10/31 11:22:32;;;;;;;3.47;3.17;;;16.90;99.90;;;;;;5054036;28;20739;-75
2021/10/31 11:25:00;;;;;;;3.58;3.28;;;17.10;99.90;;;;;;5054496;28;20214;-75
2021/10/31 11:27:29;;;;;;;4.43;4.03;;;17.10;99.90;;;;;;5054359;28;20277;-75
2021/10/31 11:29:58;;;;;;;4.63;4.00;;;17.10;99.90;;;;;;5054306;28;20231;-75
2021/10/31 11:32:26;;;;;;;4.97;3.90;;;17.20;99.90;;;;;;5053795;28;20306;-75
2021/10/31 11:34:55;;;;;;;4.03;3.63;;;17.20;99.90;;;;;;5054239;28;20210;-75
2021/10/31 11:37:24;;;;;;;5.05;3.65;;;17.20;99.90;;;;;;5054198;28;20561;-75
2021/10/31 11:39:57;;;;;;;3.92;3.53;;;17.30;99.90;;;;;;5054066;28;20586;-75
2021/10/31 11:42:26;;;;;;;4.25;3.90;;;17.30;99.90;;;;;;5053599;28;20223;-75
2021/10/31 11:45:06;;;;;;;6.45;3.58;;;17.30;99.90;;;;;;5054030;28;20210;-75
2021/10/31 11:47:33;;;;;;;4.45;3.67;;;17.40;99.90;;;;;;5054060;28;20269;-75
2021/10/31 11:50:10;;;;;;;4.72;3.55;;;17.50;99.90;;;;;;5053933;28;20227;-75
2021/10/31 11:53:01;;;;;;;4.13;3.20;;;17.80;99.90;;;;;;5053800;28;20233;-75
2021/10/31 11:55:35;;;;;;;3.65;3.35;;;18.10;99.90;;;;;;5053700;28;20243;-75
2021/10/31 11:58:53;;;;;;;2.97;2.70;;;18.40;99.90;;;;;;5053864;28;20199;-75
2021/10/31 12:01:23;;;;;;;3.07;2.83;;;18.70;99.90;;;;;;5052325;28;20523;-75
2021/10/31 12:03:52;;;;;;;2.60;2.30;;;19.00;99.90;;;;;;5053780;28;20497;-75
2021/10/31 12:06:41;;;;;;;3.80;2.73;;;19.10;99.90;;;;;;5053759;28;20443;-75
2021/10/31 12:09:19;;;;;;;3.67;2.60;;;19.10;99.90;;;;;;5053703;28;20443;-75
2021/10/31 12:12:15;;;;;;;2.80;2.60;;;19.20;99.90;;;;;;5053303;28;20579;-75
2021/10/31 12:14:57;;;;;;;3.30;3.00;;;19.30;99.90;;;;;;5053661;28;20483;-75
2021/10/31 12:17:26;;;;;;;2.57;2.37;;;19.40;99.90;;;;;;5053611;28;20526;-75
2021/10/31 12:19:54;;;;;;;2.37;2.13;;;19.50;99.90;;;;;;5053923;28;20474;-75
2021/10/31 12:22:33;;;;;;;2.57;2.13;;;19.60;98.20;;;;;;5053117;28;20826;-75
2021/10/31 12:25:02;;;;;;;2.57;2.17;;;20.00;99.90;;;;;;5053542;28;20448;-75
2021/10/31 12:27:41;;;;;;;2.40;2.20;;;20.70;98.60;;;;;;5053488;28;20452;-75
2021/10/31 12:30:40;;;;;;;2.30;2.10;;;21.30;95.30;;;;;;5053507;28;20438;-75
2021/10/31 12:33:10;;;;;;;2.00;1.80;;;21.80;95.50;;;;;;5048089;28;20497;-75
2021/10/31 12:35:39;;;;;;;2.70;2.50;;;22.00;92.60;;;;;;5053446;28;20438;-76
2021/10/31 12:38:32;;;;;;;2.13;1.93;;;22.00;90.40;;;;;;5053418;28;20441;-75
2021/10/31 12:41:24;;;;;;;3.23;2.10;;;21.90;89.10;;;;;;5053116;28;20996;-75
2021/10/31 12:43:57;;;;;;;2.00;1.90;;;21.80;90.00;;;;;;5053346;28;20484;-75
2021/10/31 12:46:27;;;;;;;2.20;1.87;;;21.50;90.50;;;;;;5053357;28;20846;-75
2021/10/31 12:48:55;;;;;;;2.20;2.00;;;21.00;90.30;;;;;;5053305;28;20452;-75
2021/10/31 12:51:42;;;;;;;2.90;2.13;;;20.80;91.70;;;;;;5052872;28;20465;-75
2021/10/31 12:54:10;;;;;;;2.87;2.30;;;20.60;92.40;;;;;;5052321;28;20457;-75
2021/10/31 12:56:37;;;;;;;2.67;2.40;;;20.40;93.10;;;;;;5052959;28;20444;-75
2021/10/31 12:59:11;;;;;;;3.33;2.80;;;20.30;94.10;;;;;;5053197;28;20453;-75